createdAt,value
2023-09-14T00:01:28.687Z,70.81
2023-09-14T00:03:56.905Z,70.52
2023-09-14T00:06:24.996Z,70.44
2023-09-14T00:08:53.096Z,70.27
2023-09-14T00:11:20.932Z,70.42
2023-09-14T00:13:49.177Z,69.98
2023-09-14T00:16:17.424Z,69.88
2023-09-14T00:18:45.743Z,69.86
2023-09-14T00:21:13.930Z,69.74
2023-09-14T00:23:41.865Z,69.33
2023-09-14T00:26:09.926Z,69.34
2023-09-14T00:28:39.039Z,69.31
2023-09-14T00:31:06.942Z,69.77
2023-09-14T00:33:34.976Z,69.87
2023-09-14T00:36:02.809Z,70.01
2023-09-14T00:38:30.638Z,70.32
2023-09-14T00:40:58.486Z,70.37
2023-09-14T00:43:26.373Z,70.23
2023-09-14T00:45:54.940Z,70.32
2023-09-14T00:48:22.987Z,70.55
2023-09-14T00:50:51.043Z,70.76
2023-09-14T00:53:21.119Z,71.16
2023-09-14T00:55:49.017Z,71.09
2023-09-14T00:58:17.740Z,71.33
2023-09-14T01:00:47.322Z,71.36
2023-09-14T01:03:16.347Z,71.13
2023-09-14T01:05:45.663Z,70.78
2023-09-14T01:08:13.714Z,70.87
2023-09-14T01:10:41.759Z,70.63
2023-09-14T01:13:15.170Z,70.47
2023-09-14T01:15:47.942Z,70.37
2023-09-14T01:18:24.411Z,70.58
2023-09-14T01:20:55.657Z,71.13
2023-09-14T01:23:30.179Z,71.43
2023-09-14T01:25:59.467Z,71.79
2023-09-14T01:28:27.371Z,72.07
2023-09-14T01:30:55.538Z,72.03
2023-09-14T01:33:26.155Z,72.16
2023-09-14T01:36:09.169Z,71.86
2023-09-14T01:38:37.347Z,72.21
2023-09-14T01:41:05.747Z,72.23
2023-09-14T01:43:34.433Z,72.43
2023-09-14T01:46:03.479Z,72.62
2023-09-14T01:48:32.531Z,72.78
2023-09-14T01:51:00.562Z,73.01
2023-09-14T01:53:28.565Z,72.91
2023-09-14T01:55:56.412Z,72.56
2023-09-14T01:58:24.766Z,72.05
2023-09-14T02:00:52.973Z,71.91
2023-09-14T02:03:21.134Z,71.43
2023-09-14T02:06:00.217Z,71.19
2023-09-14T02:08:28.852Z,71.17
2023-09-14T02:10:59.583Z,71.21
2023-09-14T02:13:29.015Z,71.37
2023-09-14T02:15:56.955Z,71.29
2023-09-14T02:18:24.955Z,71.06
2023-09-14T02:20:53.110Z,70.91
2023-09-14T02:23:21.032Z,70.88
2023-09-14T02:25:50.470Z,70.96
2023-09-14T02:28:20.859Z,71.25
2023-09-14T02:30:49.435Z,71.63
2023-09-14T02:33:17.402Z,71.75
2023-09-14T02:35:52.544Z,71.86
2023-09-14T02:38:20.658Z,71.91
2023-09-14T02:40:48.756Z,72.28
2023-09-14T02:43:16.958Z,72.10
2023-09-14T02:45:45.196Z,71.86
2023-09-14T02:48:13.980Z,71.50
2023-09-14T02:50:43.401Z,71.44
2023-09-14T02:53:11.208Z,71.63
2023-09-14T02:55:39.205Z,71.90
2023-09-14T02:58:08.776Z,72.30
2023-09-14T03:00:40.745Z,72.75
2023-09-14T03:03:11.377Z,72.96
2023-09-14T03:05:40.873Z,72.98
2023-09-14T03:08:09.060Z,73.02
2023-09-14T03:10:37.639Z,72.89
2023-09-14T03:13:05.758Z,72.90
2023-09-14T03:15:36.058Z,72.73
2023-09-14T03:18:04.838Z,72.47
2023-09-14T03:20:33.670Z,72.38
2023-09-14T03:23:03.548Z,72.30
2023-09-14T03:25:32.371Z,72.53
2023-09-14T03:28:00.430Z,72.46
2023-09-14T03:30:28.702Z,72.08
2023-09-14T03:32:56.528Z,72.09
2023-09-14T03:35:24.432Z,72.33
2023-09-14T03:37:52.432Z,72.45
2023-09-14T03:40:20.462Z,72.28
2023-09-14T03:42:49.476Z,72.13
2023-09-14T03:45:17.356Z,72.39
2023-09-14T03:47:45.437Z,72.85
2023-09-14T03:50:13.689Z,73.18
2023-09-14T03:52:41.653Z,73.06
2023-09-14T03:55:09.949Z,72.90
2023-09-14T03:57:38.232Z,72.95
2023-09-14T04:00:12.525Z,72.81
2023-09-14T04:02:44.087Z,72.51
2023-09-14T04:05:17.261Z,72.24
2023-09-14T04:07:45.654Z,72.04
2023-09-14T04:10:13.942Z,72.09
2023-09-14T04:12:42.746Z,71.85
2023-09-14T04:15:11.401Z,71.91
2023-09-14T04:17:39.716Z,71.99
2023-09-14T04:20:11.368Z,71.81
2023-09-14T04:22:40.255Z,71.80
2023-09-14T04:25:08.924Z,71.48
2023-09-14T04:27:37.766Z,71.47
2023-09-14T04:30:06.934Z,71.62
2023-09-14T04:32:35.119Z,72.58
2023-09-14T04:35:03.241Z,72.95
2023-09-14T04:37:32.923Z,73.35
2023-09-14T04:40:01.377Z,73.39
2023-09-14T04:42:29.369Z,73.48
2023-09-14T04:44:59.358Z,73.42
2023-09-14T04:47:27.331Z,73.06
2023-09-14T04:49:55.410Z,73.60
2023-09-14T04:52:23.364Z,73.48
2023-09-14T04:54:51.484Z,73.34
2023-09-14T04:57:19.825Z,73.16
2023-09-14T04:59:47.639Z,73.21
2023-09-14T05:02:16.562Z,73.75
2023-09-14T05:04:44.702Z,74.04
2023-09-14T05:07:12.726Z,74.08
2023-09-14T05:09:41.076Z,74.36
2023-09-14T05:12:09.649Z,74.27
2023-09-14T05:14:37.510Z,74.18
2023-09-14T05:17:05.489Z,74.44
2023-09-14T05:19:35.005Z,74.61
2023-09-14T05:22:03.050Z,74.73
2023-09-14T05:24:31.230Z,74.83
2023-09-14T05:27:00.585Z,74.91
2023-09-14T05:29:28.632Z,75.13
2023-09-14T05:31:57.682Z,75.02
2023-09-14T05:34:26.099Z,75.06
2023-09-14T05:36:54.289Z,75.23
2023-09-14T05:39:22.545Z,74.86
2023-09-14T05:41:52.009Z,75.11
2023-09-14T05:44:20.182Z,75.15
2023-09-14T05:46:48.817Z,75.00
2023-09-14T05:49:16.814Z,75.15
2023-09-14T05:51:44.783Z,74.88
2023-09-14T05:54:13.047Z,74.70
2023-09-14T05:56:41.093Z,74.58
2023-09-14T05:59:21.445Z,74.59
2023-09-14T06:01:54.374Z,74.10
2023-09-14T06:04:22.356Z,73.79
2023-09-14T06:06:51.017Z,73.20
2023-09-14T06:09:19.055Z,72.34
2023-09-14T06:11:47.542Z,71.94
2023-09-14T06:14:15.402Z,71.73
2023-09-14T06:16:43.470Z,71.02
2023-09-14T06:19:11.494Z,70.63
2023-09-14T06:21:39.766Z,70.73
2023-09-14T06:24:07.705Z,70.75
2023-09-14T06:26:35.664Z,70.41
2023-09-14T06:29:03.481Z,70.42
2023-09-14T06:31:31.601Z,70.36
2023-09-14T06:33:59.781Z,70.49
2023-09-14T06:36:27.613Z,69.63
2023-09-14T06:38:55.419Z,69.43
2023-09-14T06:41:23.594Z,69.40
2023-09-14T06:43:51.582Z,68.45
2023-09-14T06:46:19.460Z,67.64
2023-09-14T06:48:47.371Z,68.00
2023-09-14T06:51:15.463Z,67.65
2023-09-14T06:53:43.740Z,67.09
2023-09-14T06:56:12.430Z,66.20
2023-09-14T06:58:40.582Z,66.34
2023-09-14T07:01:09.147Z,65.94
2023-09-14T07:03:40.772Z,65.82
2023-09-14T07:06:09.213Z,65.86
2023-09-14T07:08:42.014Z,64.80
2023-09-14T07:11:10.476Z,64.90
2023-09-14T07:13:38.546Z,64.66
2023-09-14T07:16:06.583Z,63.95
2023-09-14T07:18:35.820Z,62.35
2023-09-14T07:21:04.198Z,61.79
2023-09-14T07:23:32.374Z,62.38
2023-09-14T07:26:00.345Z,62.47
2023-09-14T07:28:28.321Z,62.54
2023-09-14T07:30:56.274Z,62.26
2023-09-14T07:33:27.040Z,62.55
2023-09-14T07:35:55.185Z,61.94
2023-09-14T07:38:23.156Z,62.52
2023-09-14T07:40:51.159Z,61.71
2023-09-14T07:43:19.751Z,61.12
2023-09-14T07:45:47.843Z,60.96
2023-09-14T07:48:16.467Z,61.53
2023-09-14T07:50:44.480Z,60.83
2023-09-14T07:53:12.621Z,60.02
2023-09-14T07:55:40.715Z,59.73
2023-09-14T07:58:09.200Z,59.73
2023-09-14T08:00:37.867Z,59.95
2023-09-14T08:03:05.900Z,60.23
2023-09-14T08:05:34.319Z,58.59
2023-09-14T08:08:04.254Z,58.92
2023-09-14T08:10:32.628Z,58.17
2023-09-14T08:13:01.975Z,57.98
2023-09-14T08:15:30.337Z,58.37
2023-09-14T08:17:58.267Z,57.96
2023-09-14T08:20:26.327Z,58.56
2023-09-14T08:22:54.209Z,58.42
2023-09-14T08:25:22.298Z,57.28
2023-09-14T08:27:50.486Z,57.99
2023-09-14T08:30:18.505Z,57.58
2023-09-14T08:32:46.637Z,57.23
2023-09-14T08:35:21.922Z,56.61
2023-09-14T08:37:50.198Z,56.05
2023-09-14T08:40:20.158Z,55.83
2023-09-14T08:42:53.045Z,55.62
2023-09-14T08:45:24.536Z,55.53
2023-09-14T08:47:52.809Z,55.20
2023-09-14T08:50:22.643Z,54.66
2023-09-14T08:52:50.659Z,53.50
2023-09-14T08:55:19.843Z,54.06
2023-09-14T08:57:48.750Z,53.36
2023-09-14T09:00:17.176Z,53.82
2023-09-14T09:02:49.416Z,53.07
2023-09-14T09:05:18.282Z,51.53
2023-09-14T09:07:48.882Z,51.37
2023-09-14T09:10:22.336Z,51.89
2023-09-14T09:12:50.995Z,51.51
2023-09-14T09:15:19.239Z,51.77
2023-09-14T09:17:47.234Z,51.20
2023-09-14T09:20:24.247Z,51.48
2023-09-14T09:22:53.698Z,51.36
2023-09-14T09:25:23.286Z,49.89
2023-09-14T09:27:58.223Z,50.04
2023-09-14T09:30:35.981Z,50.05
2023-09-14T09:33:05.801Z,51.25
2023-09-14T09:35:35.756Z,50.60
2023-09-14T09:38:12.220Z,48.55
2023-09-14T09:40:44.041Z,50.20
2023-09-14T09:43:21.248Z,49.58
2023-09-14T09:45:49.686Z,49.96
2023-09-14T09:48:17.759Z,47.97
2023-09-14T09:50:46.894Z,49.19
2023-09-14T09:53:16.454Z,48.41
2023-09-14T09:55:46.985Z,48.13
2023-09-14T09:58:18.552Z,47.89
2023-09-14T10:00:46.957Z,46.73
2023-09-14T10:03:17.499Z,46.67
2023-09-14T10:05:46.077Z,46.50
2023-09-14T10:08:21.093Z,44.89
2023-09-14T10:10:52.897Z,44.70
2023-09-14T10:13:23.473Z,44.10
2023-09-14T10:15:53.232Z,44.99
2023-09-14T10:18:26.253Z,46.40
2023-09-14T10:20:55.106Z,47.17
2023-09-14T10:23:23.863Z,45.33
2023-09-14T10:25:52.955Z,46.13
2023-09-14T10:28:21.731Z,46.92
2023-09-14T10:30:51.195Z,46.83
2023-09-14T10:33:21.054Z,46.08
2023-09-14T10:35:50.407Z,45.17
2023-09-14T10:38:19.701Z,45.54
2023-09-14T10:40:47.919Z,46.76
2023-09-14T10:43:15.895Z,45.50
2023-09-14T10:45:45.144Z,45.86
2023-09-14T10:48:17.585Z,44.27
2023-09-14T10:50:46.201Z,44.58
2023-09-14T10:53:14.789Z,44.25
2023-09-14T10:55:43.234Z,43.39
2023-09-14T10:58:17.470Z,43.97
2023-09-14T11:03:24.117Z,45.18
2023-09-14T11:05:55.243Z,43.85
2023-09-14T11:08:28.287Z,43.94
2023-09-14T11:11:03.889Z,44.43
2023-09-14T11:13:37.130Z,41.56
2023-09-14T11:16:18.478Z,41.37
2023-09-14T11:18:47.984Z,42.76
2023-09-14T11:21:37.907Z,41.16
2023-09-14T11:24:09.305Z,40.08
2023-09-14T11:26:45.005Z,41.43
2023-09-14T11:29:14.249Z,41.55
2023-09-14T11:31:58.831Z,41.76
2023-09-14T11:34:33.402Z,41.84
2023-09-14T11:37:07.034Z,40.34
2023-09-14T11:39:42.576Z,40.56
2023-09-14T11:42:15.968Z,40.23
2023-09-14T11:44:52.270Z,37.73
2023-09-14T11:47:22.657Z,37.84
2023-09-14T11:49:58.915Z,38.16
2023-09-14T11:52:27.925Z,39.96
2023-09-14T11:54:55.797Z,37.25
2023-09-14T11:57:27.721Z,38.21
2023-09-14T11:59:55.780Z,39.15
2023-09-14T12:02:23.953Z,39.41
2023-09-14T12:04:53.446Z,38.51
2023-09-14T12:07:24.569Z,37.68
2023-09-14T12:09:53.128Z,37.61
2023-09-14T12:12:30.728Z,37.73
2023-09-14T12:14:59.629Z,37.52
2023-09-14T12:17:29.306Z,37.37
2023-09-14T12:20:01.010Z,37.11
2023-09-14T12:22:32.103Z,37.05
2023-09-14T12:25:01.193Z,37.02
2023-09-14T12:27:30.037Z,35.90
2023-09-14T12:29:58.513Z,34.03
2023-09-14T12:32:26.937Z,34.03
2023-09-14T12:34:55.132Z,32.58
2023-09-14T12:37:23.988Z,33.65
2023-09-14T12:39:54.784Z,34.08
2023-09-14T12:42:23.956Z,34.11
2023-09-14T12:44:53.879Z,34.42
2023-09-14T12:47:21.962Z,34.15
2023-09-14T12:49:50.306Z,34.60
2023-09-14T12:52:20.322Z,34.93
2023-09-14T12:54:49.145Z,34.10
2023-09-14T12:57:21.008Z,35.31
2023-09-14T13:00:01.049Z,35.43
2023-09-14T13:02:29.321Z,36.39
2023-09-14T13:04:57.785Z,36.79
2023-09-14T13:07:25.697Z,37.85
2023-09-14T13:10:23.235Z,38.56
2023-09-14T13:12:53.101Z,39.37
2023-09-14T13:15:24.956Z,39.06
2023-09-14T13:17:54.985Z,39.33
2023-09-14T13:20:25.491Z,39.22
2023-09-14T13:22:54.231Z,39.44
2023-09-14T13:25:28.007Z,40.23
2023-09-14T13:27:57.209Z,40.16
2023-09-14T13:30:28.890Z,40.05
2023-09-14T13:32:57.539Z,40.74
2023-09-14T13:35:26.953Z,41.62
2023-09-14T13:37:57.917Z,43.24
2023-09-14T13:40:27.466Z,44.06
2023-09-14T13:42:59.008Z,43.84
2023-09-14T13:45:28.475Z,44.22
2023-09-14T13:47:56.932Z,45.51
2023-09-14T13:50:24.912Z,44.98
2023-09-14T13:52:52.745Z,45.73
2023-09-14T13:55:20.898Z,45.71
2023-09-14T13:57:49.818Z,47.13
2023-09-14T14:00:18.846Z,46.70
2023-09-14T14:02:48.426Z,44.63
2023-09-14T14:05:17.146Z,44.04
2023-09-14T14:07:45.364Z,43.35
2023-09-14T14:10:13.312Z,43.33
2023-09-14T14:12:41.410Z,43.18
2023-09-14T14:15:12.865Z,43.35
2023-09-14T14:17:41.760Z,44.41
2023-09-14T14:20:11.192Z,44.66
2023-09-14T14:22:39.606Z,45.28
2023-09-14T14:25:07.807Z,45.77
2023-09-14T14:27:40.590Z,46.05
2023-09-14T14:30:10.157Z,47.05
2023-09-14T14:32:38.392Z,47.99
2023-09-14T14:35:07.513Z,47.59
2023-09-14T14:37:35.513Z,45.95
2023-09-14T14:40:05.315Z,45.95
2023-09-14T14:42:33.806Z,46.13
2023-09-14T14:45:01.900Z,46.14
2023-09-14T14:47:29.802Z,46.23
2023-09-14T14:49:57.644Z,46.32
2023-09-14T14:52:25.672Z,46.57
2023-09-14T14:54:53.793Z,47.33
2023-09-14T14:57:21.622Z,47.19
2023-09-14T14:59:49.501Z,47.38
2023-09-14T15:02:17.330Z,47.42
2023-09-14T15:04:45.437Z,47.80
2023-09-14T15:07:13.302Z,47.59
2023-09-14T15:09:41.282Z,47.39
2023-09-14T15:12:09.344Z,47.23
2023-09-14T15:14:37.390Z,47.67
2023-09-14T15:17:05.466Z,47.96
2023-09-14T15:19:33.760Z,47.78
2023-09-14T15:22:02.626Z,47.70
2023-09-14T15:24:30.735Z,48.20
2023-09-14T15:26:59.498Z,48.31
2023-09-14T15:29:27.332Z,48.70
2023-09-14T15:31:55.275Z,49.56
2023-09-14T15:34:25.746Z,49.64
2023-09-14T15:36:53.604Z,50.55
2023-09-14T15:39:22.311Z,51.22
2023-09-14T15:41:51.676Z,51.08
2023-09-14T15:44:20.092Z,50.92
2023-09-14T15:46:48.093Z,51.60
2023-09-14T15:49:17.957Z,52.11
2023-09-14T15:51:46.202Z,52.90
2023-09-14T15:54:16.919Z,52.45
2023-09-14T15:56:45.258Z,52.44
2023-09-14T15:59:14.610Z,52.81
2023-09-14T16:01:42.572Z,53.37
2023-09-14T16:04:10.805Z,53.41
2023-09-14T16:06:39.058Z,52.96
2023-09-14T16:09:11.529Z,54.24
2023-09-14T16:11:39.537Z,54.43
2023-09-14T16:14:09.752Z,54.57
2023-09-14T16:16:38.450Z,54.24
2023-09-14T16:19:06.393Z,54.16
2023-09-14T16:21:34.525Z,54.29
2023-09-14T16:24:03.068Z,54.78
2023-09-14T16:26:31.141Z,56.11
2023-09-14T16:28:59.211Z,56.65
2023-09-14T16:31:28.088Z,56.67
2023-09-14T16:33:57.420Z,56.89
2023-09-14T16:36:25.672Z,57.09
2023-09-14T16:38:59.587Z,57.33
2023-09-14T16:41:27.658Z,57.84
2023-09-14T16:43:55.584Z,57.96
2023-09-14T16:46:23.550Z,58.14
2023-09-14T16:48:51.710Z,57.51
2023-09-14T16:51:19.575Z,58.22
2023-09-14T16:53:47.408Z,58.18
2023-09-14T16:56:15.401Z,58.70
2023-09-14T16:58:43.337Z,59.42
2023-09-14T17:01:12.747Z,59.87
2023-09-14T17:03:40.930Z,59.97
2023-09-14T17:06:09.340Z,59.79
2023-09-14T17:08:37.364Z,60.10
2023-09-14T17:11:05.447Z,60.18
2023-09-14T17:13:33.668Z,60.25
2023-09-14T17:16:01.626Z,60.27
2023-09-14T17:18:29.821Z,60.09
2023-09-14T17:20:57.810Z,60.23
2023-09-14T17:23:25.665Z,60.78
2023-09-14T17:25:55.029Z,61.34
2023-09-14T17:28:26.469Z,61.71
2023-09-14T17:30:56.321Z,61.58
2023-09-14T17:33:24.543Z,61.25
2023-09-14T17:35:52.615Z,61.60
2023-09-14T17:38:24.197Z,61.93
2023-09-14T17:40:52.079Z,62.41
2023-09-14T17:43:19.967Z,62.67
2023-09-14T17:45:47.880Z,63.14
2023-09-14T17:48:16.154Z,63.31
2023-09-14T17:50:44.440Z,63.55
2023-09-14T17:53:13.823Z,63.76
2023-09-14T17:55:41.995Z,63.99
2023-09-14T17:58:11.352Z,64.25
2023-09-14T18:00:39.482Z,64.21
2023-09-14T18:03:13.687Z,64.45
2023-09-14T18:05:45.654Z,64.60
2023-09-14T18:08:13.992Z,64.74
2023-09-14T18:10:42.713Z,64.93
2023-09-14T18:13:10.837Z,65.26
2023-09-14T18:15:39.285Z,65.30
2023-09-14T18:18:07.814Z,65.34
2023-09-14T18:20:38.795Z,65.57
2023-09-14T18:23:06.870Z,65.50
2023-09-14T18:25:35.122Z,65.84
2023-09-14T18:28:05.287Z,65.46
2023-09-14T18:30:33.356Z,65.42
2023-09-14T18:33:02.333Z,65.69
2023-09-14T18:35:30.596Z,65.44
2023-09-14T18:38:00.233Z,65.27
2023-09-14T18:40:29.371Z,65.43
2023-09-14T18:42:58.845Z,65.23
2023-09-14T18:45:27.599Z,64.89
2023-09-14T18:47:58.544Z,65.03
2023-09-14T18:50:26.659Z,64.70
2023-09-14T18:52:54.475Z,65.26
2023-09-14T18:55:23.608Z,65.72
2023-09-14T18:57:53.799Z,65.69
2023-09-14T19:00:22.119Z,65.87
2023-09-14T19:02:50.161Z,65.88
2023-09-14T19:05:18.866Z,66.30
2023-09-14T19:07:48.199Z,66.64
2023-09-14T19:10:16.629Z,67.12
2023-09-14T19:12:46.963Z,66.97
2023-09-14T19:15:15.103Z,66.87
2023-09-14T19:17:44.176Z,66.53
2023-09-14T19:20:12.581Z,66.77
2023-09-14T19:22:41.546Z,66.60
2023-09-14T19:25:09.601Z,66.44
2023-09-14T19:27:37.735Z,66.46
2023-09-14T19:30:06.427Z,66.82
2023-09-14T19:32:34.619Z,67.01
2023-09-14T19:35:03.507Z,67.13
2023-09-14T19:37:31.421Z,67.08
2023-09-14T19:39:59.258Z,66.94
2023-09-14T19:42:27.374Z,67.31
2023-09-14T19:44:59.666Z,67.34
2023-09-14T19:47:28.352Z,67.39
2023-09-14T19:49:56.445Z,67.20
2023-09-14T19:52:24.787Z,67.36
2023-09-14T19:54:52.714Z,68.09
2023-09-14T19:57:20.722Z,68.18
2023-09-14T19:59:49.732Z,68.43
2023-09-14T20:02:19.760Z,68.56
2023-09-14T20:04:48.221Z,68.42
2023-09-14T20:07:16.220Z,68.33
2023-09-14T20:09:44.298Z,68.43
2023-09-14T20:12:17.366Z,68.63
2023-09-14T20:14:45.968Z,68.85
2023-09-14T20:17:17.095Z,68.93
2023-09-14T20:19:45.211Z,69.04
2023-09-14T20:22:13.213Z,69.15
2023-09-14T20:24:41.424Z,69.62
2023-09-14T20:27:09.503Z,70.00
2023-09-14T20:29:37.432Z,70.04
2023-09-14T20:32:05.315Z,70.42
2023-09-14T20:34:33.272Z,70.68
2023-09-14T20:37:01.860Z,70.78
2023-09-14T20:39:30.143Z,70.77
2023-09-14T20:41:58.416Z,70.90
2023-09-14T20:44:26.687Z,71.06
2023-09-14T20:46:54.647Z,71.60
2023-09-14T20:49:22.967Z,71.89
2023-09-14T20:51:51.012Z,72.03
2023-09-14T20:54:21.011Z,72.09
2023-09-14T20:56:49.291Z,72.24
2023-09-14T20:59:18.975Z,72.32
2023-09-14T21:01:47.284Z,72.50
2023-09-14T21:04:16.134Z,72.74
2023-09-14T21:06:44.472Z,72.73
2023-09-14T21:09:12.520Z,72.61
2023-09-14T21:11:40.319Z,72.70
2023-09-14T21:14:08.433Z,72.60
2023-09-14T21:16:37.345Z,72.61
2023-09-14T21:19:08.925Z,72.60
2023-09-14T21:21:37.878Z,72.39
2023-09-14T21:24:06.196Z,72.54
2023-09-14T21:26:34.352Z,72.70
2023-09-14T21:29:02.334Z,73.23
2023-09-14T21:31:31.383Z,73.53
2023-09-14T21:33:59.309Z,73.64
2023-09-14T21:36:27.563Z,73.69
2023-09-14T21:38:55.426Z,73.68
2023-09-14T21:41:23.390Z,73.69
2023-09-14T21:43:51.348Z,73.73
2023-09-14T21:46:19.396Z,73.60
2023-09-14T21:48:47.735Z,73.62
2023-09-14T21:51:16.301Z,73.42
2023-09-14T21:53:44.466Z,73.41
2023-09-14T21:56:12.444Z,73.34
2023-09-14T21:58:40.324Z,73.38
2023-09-14T22:01:08.187Z,73.26
2023-09-14T22:03:50.432Z,73.17
2023-09-14T22:08:51.216Z,73.10
2023-09-14T22:11:19.094Z,73.03
2023-09-14T22:13:46.983Z,72.97
2023-09-14T22:16:15.084Z,73.20
2023-09-14T22:18:43.729Z,73.23
2023-09-14T22:21:15.487Z,73.43
2023-09-14T22:23:43.752Z,73.51
2023-09-14T22:26:11.690Z,73.39
2023-09-14T22:28:39.666Z,73.61
2023-09-14T22:31:12.335Z,73.84
2023-09-14T22:33:46.927Z,73.86
2023-09-14T22:36:14.975Z,74.18
2023-09-14T22:38:43.771Z,74.63
2023-09-14T22:41:11.739Z,74.53
2023-09-14T22:43:39.582Z,74.51
2023-09-14T22:46:11.053Z,74.50
2023-09-14T22:48:40.008Z,74.63
2023-09-14T22:51:14.806Z,74.54
2023-09-14T22:53:42.980Z,74.63
2023-09-14T22:56:17.029Z,74.56
2023-09-14T22:58:51.882Z,74.51
2023-09-14T23:01:20.994Z,74.62
2023-09-14T23:06:17.023Z,75.37
2023-09-14T23:08:47.909Z,75.39
2023-09-14T23:11:25.413Z,75.58
2023-09-14T23:13:53.643Z,75.56
2023-09-14T23:16:28.801Z,75.64
2023-09-14T23:18:57.986Z,75.60
2023-09-14T23:21:27.103Z,75.86
2023-09-14T23:23:56.872Z,75.63
2023-09-14T23:26:24.727Z,75.96
2023-09-14T23:28:53.429Z,76.17
2023-09-14T23:31:21.516Z,76.45
2023-09-14T23:33:49.605Z,76.20
2023-09-14T23:36:17.673Z,76.37
2023-09-14T23:38:46.476Z,76.41
2023-09-14T23:41:14.755Z,76.32
2023-09-14T23:43:42.682Z,76.43
2023-09-14T23:46:12.654Z,76.63
2023-09-14T23:48:42.098Z,76.34
2023-09-14T23:51:10.164Z,76.00
2023-09-14T23:53:39.289Z,75.82
2023-09-14T23:56:08.086Z,75.82
2023-09-14T23:58:36.122Z,75.79
